San Miguel, CA (93451)

2:26 PM PST on February 08, 2016 (GMT -0800)
Ranchita Canyon | | Change Station
CLOSE
Current Station
Personal Weather Station
Location: San Miguel, CA
Elevation: 1142 ft
Nearby Weather Stations

Elev 1142 ft 35.77 °N, 120.61 °W | Updated 3 seconds ago

Clear
Clear
76.6 °F
Feels Like 77 °F
N
3.6
Wind Variable Wind from ENE
Gusts 4.9 mph

Today
High -- | Low -- °F
--% Chance of Precip.
Yesterday
High -- | Low -- °F
Precip. -- in
Pressure 30.15 in
Visibility 10.0 miles
Clouds Clear
Heat Index 77 °F
Dew Point 36 °F
Humidity 23%
Rainfall 0.00 in
Snow Depth Not available.
6:57 AM 5:36 PM
New Moon, 0% visible
METAR KPRB 082153Z AUTO 07011KT 10SM CLR 24/08 A3015 RMK AO2 SLP208 T02390078 TSNO
Pressure 30.15 in
Visibility 10.0 miles
Clouds Clear
Heat Index 77 °F
Dew Point 36 °F
Humidity 23%
Rainfall 0.00 in
Snow Depth Not available.
6:57 AM 5:36 PM
New Moon, 0% visible
METAR KPRB 082153Z AUTO 07011KT 10SM CLR 24/08 A3015 RMK AO2 SLP208 T02390078 TSNO

10-Day Weather Forecast

Almanac

Astronomy

Feb. 08, 2016 Rise Set
Actual Time
Civil Twilight
Nautical Twilight
Astronomical Twilight
Moon
Length of Visible Light
Length of Day
Tomorrow will be .
, % of the Moon is Illuminated

Today's Extremes

State Highs State Lows

Community

WunderPhotos

Upload Photos

1,891,518 photos uploaded!

WunderBlog® & News

Nearby

Air Quality

  Air Quality AQ Index Pollutant
Not available.

Snow Depth

Station Depth Elevation

Earthquake Activity

City Distance Mag. Time & Date
Minimum magnitude displayed is 2.5.

Coastal Water Temperatures

Place Temperature

Stations

Nearby Weather Stations

Station Location Temp. Windchill Dew Point Humidity Wind Precip. Elev Updated Type
                   

Watches & Warnings

There are currently no watches in effect.